Time;durP1;ratioP1;P1;durP2;ratioP2;P2;SDS_P1;SDS_P2;PMS_P1;PMS_P2;Temp;Humidity;BMP_temperature;BMP_pressure;BME280_temperature;BME280_humidity;BME280_pressure;Samples;Min_cycle;Max_cycle;Signal;HPM_P1;HPM_P2
2022/06/06 00:02:07;;;;;;;28.77;18.38;;;;;;;18.06;64.83;101335.47;5084389;28;20091;-62
2022/06/06 00:04:37;;;;;;;32.80;20.95;;;;;;;18.06;64.85;101343.66;5078094;28;20058;-62
2022/06/06 00:07:06;;;;;;;31.42;19.33;;;;;;;18.05;64.74;101339.28;5082226;28;20045;-62
2022/06/06 00:09:34;;;;;;;30.20;19.65;;;;;;;18.04;64.46;101337.66;5083766;28;20072;-62
2022/06/06 00:12:05;;;;;;;26.10;18.40;;;;;;;18.05;64.55;101335.75;5080901;28;20052;-62
2022/06/06 00:14:33;;;;;;;30.15;19.98;;;;;;;18.04;64.68;101337.66;5081680;28;20063;-63
2022/06/06 00:17:01;;;;;;;32.20;19.60;;;;;;;18.02;64.64;101334.38;5084344;28;20071;-63
2022/06/06 00:19:29;;;;;;;27.63;18.88;;;;;;;18.02;64.52;101331.66;5076067;28;20076;-62
2022/06/06 00:21:58;;;;;;;28.85;19.55;;;;;;;17.98;64.35;101324.25;5072363;28;20044;-62
2022/06/06 00:24:26;;;;;;;26.20;17.10;;;;;;;17.99;64.53;101324.00;5084959;28;20048;-62
2022/06/06 00:26:54;;;;;;;30.73;18.95;;;;;;;17.99;64.62;101318.56;5084956;28;20056;-62
2022/06/06 00:29:22;;;;;;;28.98;18.63;;;;;;;17.99;64.42;101321.28;5084360;28;20045;-62
2022/06/06 00:34:51;;;;;;;28.60;19.60;;;;;;;17.98;64.41;101313.38;5082445;28;20048;-63
2022/06/06 00:37:27;;;;;;;34.08;19.98;;;;;;;17.95;64.68;101320.16;5077465;28;20132;-62
2022/06/06 00:39:57;;;;;;;30.13;18.77;;;;;;;17.95;64.42;101311.19;5080594;28;20087;-62
2022/06/06 00:42:29;;;;;;;27.10;18.80;;;;;;;17.93;64.50;101311.44;5078868;28;20451;-62
2022/06/06 00:45:19;;;;;;;23.90;16.73;;;;;;;17.94;64.59;101312.25;5081794;28;20213;-63
2022/06/06 00:47:50;;;;;;;33.22;19.65;;;;;;;17.92;64.71;101309.81;5080050;28;20066;-62
2022/06/06 00:50:22;;;;;;;33.47;19.25;;;;;;;17.92;64.65;101312.53;5083683;28;20083;-62
2022/06/06 00:52:53;;;;;;;27.92;18.55;;;;;;;17.91;64.63;101310.06;5077208;28;20452;-63
2022/06/06 00:55:25;;;;;;;29.45;19.67;;;;;;;17.90;64.61;101309.25;5082572;28;20049;-63
2022/06/06 00:58:05;;;;;;;27.70;19.67;;;;;;;17.87;64.79;101307.84;5086098;28;20072;-62
2022/06/06 01:00:33;;;;;;;38.28;20.42;;;;;;;17.88;64.68;101309.50;5081322;28;20242;-62
2022/06/06 01:03:04;;;;;;;27.00;18.45;;;;;;;17.87;64.73;101307.84;5083712;28;20061;-62
2022/06/06 01:05:33;;;;;;;28.00;19.73;;;;;;;17.81;65.03;101303.47;5079552;28;20057;-62
2022/06/06 01:08:03;;;;;;;31.70;20.63;;;;;;;17.86;64.63;101308.13;5084469;28;20493;-62
2022/06/06 01:10:31;;;;;;;32.65;19.88;;;;;;;17.86;64.76;101311.66;5073050;28;20040;-62
2022/06/06 01:12:59;;;;;;;27.15;19.33;;;;;;;17.85;64.64;101307.31;5082203;28;20103;-63
2022/06/06 01:15:38;;;;;;;27.70;18.98;;;;;;;17.85;64.69;101318.19;5081955;28;20067;-62
2022/06/06 01:18:15;;;;;;;29.50;19.33;;;;;;;17.85;64.82;101304.56;5083499;28;20059;-64
2022/06/06 01:20:56;;;;;;;25.98;18.20;;;;;;;17.85;64.72;101309.19;5080155;28;20060;-62
2022/06/06 01:23:47;;;;;;;28.40;18.60;;;;;;;17.85;64.57;101314.63;5087633;28;20055;-65
2022/06/06 01:26:50;;;;;;;28.95;18.83;;;;;;;17.84;64.47;101297.50;5083392;28;20076;-62
2022/06/06 01:29:24;;;;;;;26.60;18.85;;;;;;;17.84;64.69;101308.38;5070861;28;20072;-62
2022/06/06 01:32:00;;;;;;;26.52;19.08;;;;;;;17.85;64.30;101314.63;5082335;28;20076;-63
2022/06/06 01:34:31;;;;;;;23.73;17.27;;;;;;;17.84;64.33;101311.09;5067568;28;20070;-62
2022/06/06 01:36:59;;;;;;;23.63;17.77;;;;;;;17.84;64.30;101302.94;5080184;28;20053;-62
2022/06/06 01:39:29;;;;;;;24.45;17.17;;;;;;;17.84;64.27;101313.00;5081987;28;20059;-62
2022/06/06 01:42:09;;;;;;;25.65;18.52;;;;;;;17.84;64.44;101311.09;5078562;28;20152;-62
2022/06/06 01:44:41;;;;;;;28.00;18.70;;;;;;;17.84;64.32;101313.00;5081189;28;20052;-62
2022/06/06 01:47:13;;;;;;;25.33;17.45;;;;;;;17.84;64.46;101310.28;5083057;28;20072;-62
2022/06/06 01:49:41;;;;;;;26.73;16.48;;;;;;;17.82;64.30;101313.25;5075263;28;20049;-63
2022/06/06 01:52:12;;;;;;;25.10;17.40;;;;;;;17.82;64.64;101307.81;5081466;28;20051;-62
2022/06/06 01:54:41;;;;;;;22.67;16.10;;;;;;;17.82;64.29;101307.81;5087850;28;20397;-65
2022/06/06 01:57:12;;;;;;;24.30;15.88;;;;;;;17.81;64.49;101308.91;5079771;28;20045;-62
2022/06/06 01:59:42;;;;;;;23.10;16.02;;;;;;;17.80;64.62;101299.09;5070331;28;20044;-62
2022/06/06 02:02:11;;;;;;;24.00;16.73;;;;;;;17.80;64.41;101290.94;5078742;28;20127;-62
2022/06/06 02:04:38;;;;;;;24.35;15.65;;;;;;;17.79;64.95;101293.91;5081651;28;20041;-63
2022/06/06 02:07:06;;;;;;;27.27;15.98;;;;;;;17.78;64.81;101290.38;5083926;28;20052;-62
2022/06/06 02:09:34;;;;;;;23.70;16.17;;;;;;;17.77;64.72;101283.31;5076288;28;20413;-62
2022/06/06 02:12:02;;;;;;;22.83;14.38;;;;;;;17.73;64.63;101273.19;5082455;28;20059;-62
2022/06/06 02:14:30;;;;;;;21.67;15.02;;;;;;;17.76;64.83;101270.78;5082358;28;20083;-62
2022/06/06 02:16:59;;;;;;;24.13;14.57;;;;;;;17.74;64.72;101281.09;5079326;28;20076;-62
2022/06/06 02:19:27;;;;;;;22.00;14.25;;;;;;;17.74;64.90;101291.97;5082270;28;20150;-62
2022/06/06 02:21:55;;;;;;;21.33;14.63;;;;;;;17.74;64.60;101288.44;5080713;28;20072;-62
2022/06/06 02:24:22;;;;;;;20.38;13.65;;;;;;;17.72;64.45;101285.97;5079681;28;20121;-62
2022/06/06 02:26:50;;;;;;;22.40;13.98;;;;;;;17.71;64.74;101286.22;5082869;28;20084;-62
2022/06/06 02:29:18;;;;;;;20.63;13.48;;;;;;;17.71;64.73;101292.50;5077350;28;20199;-63
2022/06/06 02:31:45;;;;;;;19.25;12.65;;;;;;;17.70;64.67;101292.75;5083863;28;20064;-62
2022/06/06 02:34:14;;;;;;;19.67;12.88;;;;;;;17.69;64.83;101289.22;5082436;28;20059;-63
2022/06/06 02:36:42;;;;;;;17.85;12.65;;;;;;;17.69;64.99;101291.09;5080849;28;20044;-64
2022/06/06 02:39:13;;;;;;;18.20;12.93;;;;;;;17.68;64.83;101290.28;5081462;28;20060;-65
2022/06/06 02:41:41;;;;;;;25.25;14.57;;;;;;;17.67;65.08;101293.25;5083678;28;20068;-65
2022/06/06 02:44:10;;;;;;;21.40;14.13;;;;;;;17.67;64.72;101287.81;5085191;28;20114;-65
2022/06/06 02:46:38;;;;;;;20.50;13.40;;;;;;;17.65;64.80;101284.53;5087480;28;20063;-63
2022/06/06 02:49:05;;;;;;;19.17;12.60;;;;;;;17.65;65.04;101287.22;5089274;28;20044;-65
2022/06/06 02:51:34;;;;;;;19.35;13.18;;;;;;;17.63;65.04;101287.50;5075376;28;20056;-66
2022/06/06 02:54:03;;;;;;;16.95;12.00;;;;;;;17.63;64.72;101286.66;5084994;28;20084;-62
2022/06/06 02:56:30;;;;;;;19.13;12.48;;;;;;;17.63;64.69;101289.38;5082467;28;20084;-62
2022/06/06 02:59:07;;;;;;;21.27;14.07;;;;;;;17.62;64.70;101285.84;5086162;28;20105;-62
2022/06/06 03:01:36;;;;;;;19.70;13.07;;;;;;;17.61;64.74;101283.41;5084200;28;20506;-63
2022/06/06 03:04:04;;;;;;;20.70;13.35;;;;;;;17.61;64.51;101283.41;5083151;28;20408;-62
2022/06/06 03:06:40;;;;;;;19.38;12.32;;;;;;;17.62;64.33;101287.75;5078223;28;20044;-63
2022/06/06 03:09:23;;;;;;;18.88;13.35;;;;;;;17.61;64.56;101286.09;5077687;28;20052;-63
2022/06/06 03:12:05;;;;;;;22.98;14.00;;;;;;;17.60;64.63;101282.56;5075526;28;20308;-62
2022/06/06 03:15:08;;;;;;;19.55;12.82;;;;;;;17.60;64.37;101287.19;5084782;28;20044;-62
2022/06/06 03:21:02;;;;;;;19.73;13.05;;;;;;;17.59;64.19;101289.09;5075680;28;20090;-62
2022/06/06 03:23:51;;;;;;;20.75;12.45;;;;;;;17.56;64.27;101292.31;5080090;28;20138;-64
2022/06/06 03:26:29;;;;;;;19.55;12.73;;;;;;;17.56;64.42;101292.31;5081137;28;20041;-62
2022/06/06 03:29:09;;;;;;;15.65;10.95;;;;;;;17.55;64.19;101287.97;5070516;28;20493;-63
2022/06/06 03:31:48;;;;;;;19.48;12.30;;;;;;;17.55;64.10;101299.66;5083517;28;20084;-62
2022/06/06 03:34:28;;;;;;;17.60;11.82;;;;;;;17.54;63.94;101297.19;5080424;28;20052;-63
2022/06/06 03:37:03;;;;;;;17.85;11.80;;;;;;;17.54;64.02;101294.47;5082564;28;20075;-62
2022/06/06 03:39:41;;;;;;;19.45;12.50;;;;;;;17.53;63.99;101299.09;5078495;28;20052;-62
2022/06/06 03:42:14;;;;;;;19.33;11.82;;;;;;;17.53;63.85;101299.09;5075242;28;20071;-62
2022/06/06 03:44:56;;;;;;;20.25;12.25;;;;;;;17.52;63.95;101305.59;5076773;28;20053;-62
2022/06/06 03:47:36;;;;;;;16.65;10.88;;;;;;;17.51;63.89;101314.84;5082232;28;20536;-62
2022/06/06 03:50:13;;;;;;;22.20;12.65;;;;;;;17.50;63.85;101312.38;5082452;28;20066;-62
2022/06/06 03:52:48;;;;;;;14.05;10.90;;;;;;;17.49;63.84;101305.28;5076084;28;20087;-63
2022/06/06 03:55:28;;;;;;;16.30;10.60;;;;;;;17.47;63.97;101312.88;5084922;28;20056;-62
2022/06/06 03:57:57;;;;;;;17.00;9.88;;;;;;;17.46;64.13;101303.91;5079114;28;20079;-62
2022/06/06 04:00:25;;;;;;;14.10;9.48;;;;;;;17.44;63.82;101311.50;5084153;28;20123;-62
2022/06/06 04:02:56;;;;;;;15.85;9.45;;;;;;;17.40;63.93;101304.13;5078596;28;20483;-63
2022/06/06 04:05:23;;;;;;;17.30;10.48;;;;;;;17.42;63.77;101319.09;5084681;28;20440;-62
2022/06/06 04:07:51;;;;;;;13.45;10.05;;;;;;;17.38;63.76;101307.09;5078395;28;20504;-62
2022/06/06 04:10:25;;;;;;;14.13;9.70;;;;;;;17.40;63.61;101309.53;5082222;28;20068;-62
2022/06/06 04:13:16;;;;;;;12.38;8.25;;;;;;;17.39;63.61;101321.50;5069072;28;20107;-62
2022/06/06 04:15:53;;;;;;;14.80;9.93;;;;;;;17.37;63.68;101312.78;5081989;28;20068;-62
2022/06/06 04:18:28;;;;;;;17.20;9.65;;;;;;;17.37;63.54;101315.50;5084919;28;20088;-62
2022/06/06 04:21:06;;;;;;;14.15;8.85;;;;;;;17.36;63.61;101313.84;5082543;28;20095;-62
2022/06/06 04:23:57;;;;;;;15.93;8.85;;;;;;;17.34;63.41;101316.81;5080094;28;20064;-62
2022/06/06 04:26:37;;;;;;;11.40;8.15;;;;;;;17.33;63.49;101322.53;5080992;28;20071;-62
2022/06/06 04:29:12;;;;;;;13.55;8.82;;;;;;;17.31;63.50;101328.22;5085886;28;20087;-62
2022/06/06 04:31:48;;;;;;;14.32;8.23;;;;;;;17.31;63.49;101327.41;5084012;28;20041;-62
2022/06/06 04:34:21;;;;;;;16.02;8.38;;;;;;;17.29;63.37;101335.81;5091304;28;20060;-63
2022/06/06 04:36:56;;;;;;;15.05;8.68;;;;;;;17.28;63.38;101334.19;5082283;28;20059;-62
2022/06/06 04:39:30;;;;;;;12.80;7.80;;;;;;;17.27;63.39;101331.72;5081387;28;20060;-62
2022/06/06 04:42:05;;;;;;;15.02;8.38;;;;;;;17.25;63.32;101334.69;5082854;28;20044;-62
2022/06/06 04:44:41;;;;;;;13.43;8.38;;;;;;;17.24;63.42;101333.03;5081615;28;20059;-62
2022/06/06 04:47:15;;;;;;;12.88;8.55;;;;;;;17.23;63.40;101336.84;5082234;28;20084;-62
2022/06/06 04:49:46;;;;;;;12.68;7.25;;;;;;;17.21;63.28;101328.94;5079364;28;20092;-62
2022/06/06 04:52:14;;;;;;;15.65;7.38;;;;;;;17.20;63.19;101338.16;5085804;28;20081;-62
2022/06/06 04:54:45;;;;;;;11.80;7.40;;;;;;;17.19;63.17;101338.41;5074916;28;20072;-62
2022/06/06 04:57:18;;;;;;;11.65;7.45;;;;;;;17.16;63.10;101339.75;5084073;28;20116;-62
2022/06/06 04:59:47;;;;;;;13.02;7.30;;;;;;;17.17;63.09;101337.84;5074641;28;20080;-62
2022/06/06 05:02:15;;;;;;;13.27;7.10;;;;;;;17.15;62.94;101335.38;5075641;28;20040;-62
2022/06/06 05:04:43;;;;;;;11.23;6.82;;;;;;;17.13;62.91;101329.38;5077795;28;20051;-63
2022/06/06 05:07:31;;;;;;;13.40;6.70;;;;;;;17.12;63.06;101330.47;5080557;28;20048;-63
2022/06/06 05:10:27;;;;;;;11.07;6.32;;;;;;;17.12;62.73;101333.19;5075406;28;20513;-62
2022/06/06 05:13:19;;;;;;;9.70;6.22;;;;;;;17.12;62.78;101351.38;5078613;28;20079;-62
2022/06/06 05:16:02;;;;;;;11.80;6.43;;;;;;;17.13;62.71;101347.56;5076432;28;20073;-62
2022/06/06 05:18:50;;;;;;;10.15;6.15;;;;;;;17.17;62.68;101356.84;4721745;28;10000229;-62
2022/06/06 05:21:38;;;;;;;9.70;5.82;;;;;;;17.14;62.53;101350.03;5071158;28;20068;-62
2022/06/06 05:24:30;;;;;;;10.73;6.57;;;;;;;17.13;62.47;101359.25;5075902;28;20064;-62
2022/06/06 05:27:19;;;;;;;12.02;5.80;;;;;;;17.11;62.39;101358.69;5072495;28;20076;-62
2022/06/06 05:30:02;;;;;;;9.48;6.20;;;;;;;17.10;62.34;101356.22;5075861;28;20124;-62
2022/06/06 05:33:06;;;;;;;8.43;5.78;;;;;;;17.09;62.37;101349.16;5076008;28;20671;-63
2022/06/06 05:36:00;;;;;;;9.57;5.60;;;;;;;17.12;62.25;101352.19;5069909;28;20133;-63
2022/06/06 05:38:50;;;;;;;10.98;6.20;;;;;;;17.09;62.25;101352.69;5074709;28;20052;-63
2022/06/06 05:41:28;;;;;;;8.15;5.30;;;;;;;17.09;62.15;101360.03;5067416;28;20076;-64
2022/06/06 05:44:07;;;;;;;8.77;6.20;;;;;;;17.08;62.25;101369.25;5073473;28;20078;-62
2022/06/06 05:46:48;;;;;;;14.27;6.32;;;;;;;17.09;61.95;101365.44;5075788;28;20055;-62
2022/06/06 05:49:35;;;;;;;9.65;6.28;;;;;;;17.06;61.95;101358.63;5076096;28;20052;-62
2022/06/06 05:52:19;;;;;;;9.68;5.90;;;;;;;17.07;62.00;101364.88;5072638;28;20064;-62
2022/06/06 05:55:02;;;;;;;10.63;5.40;;;;;;;17.05;61.85;101362.41;5079367;28;20786;-63
2022/06/06 05:57:59;;;;;;;9.40;5.50;;;;;;;17.04;61.91;101362.66;5081246;28;20112;-62
2022/06/06 06:00:40;;;;;;;11.10;5.60;;;;;;;17.02;61.71;101356.66;5072750;28;20080;-62
2022/06/06 06:03:37;;;;;;;7.35;5.25;;;;;;;17.02;61.88;101356.66;5073500;28;20106;-61
2022/06/06 06:06:19;;;;;;;10.48;5.82;;;;;;;17.01;61.86;101358.56;5070465;28;20737;-61
2022/06/06 06:09:03;;;;;;;8.70;5.13;;;;;;;17.03;61.98;101358.31;5075970;28;20056;-60
2022/06/06 06:11:44;;;;;;;8.20;5.57;;;;;;;17.04;61.92;101373.53;5080354;28;20055;-61
2022/06/06 06:14:21;;;;;;;9.73;5.60;;;;;;;17.05;61.93;101367.03;5066200;28;20194;-61
2022/06/06 06:16:53;;;;;;;11.40;4.30;;;;;;;17.06;61.91;101366.78;5076239;28;20079;-62
2022/06/06 06:19:31;;;;;;;13.40;5.35;;;;;;;17.08;61.62;101367.34;5073201;28;20120;-61
2022/06/06 06:22:01;;;;;;;6.80;4.22;;;;;;;17.08;61.68;101370.06;5070292;28;20060;-61
2022/06/06 06:24:32;;;;;;;9.82;4.57;;;;;;;17.11;61.55;101372.28;5076733;28;20048;-62
2022/06/06 06:27:03;;;;;;;9.13;5.18;;;;;;;17.13;61.41;101374.72;5075906;28;20048;-61
2022/06/06 06:29:31;;;;;;;5.85;3.78;;;;;;;17.14;61.49;101376.38;5074904;28;20509;-62
2022/06/06 06:32:17;;;;;;;6.72;3.78;;;;;;;17.18;61.39;101382.94;5074385;28;20083;-61
2022/06/06 06:35:11;;;;;;;6.28;3.60;;;;;;;17.17;61.48;101379.41;5072214;28;20047;-60
2022/06/06 06:38:01;;;;;;;7.53;3.17;;;;;;;17.19;61.45;101381.88;5077200;28;20132;-62
2022/06/06 06:40:42;;;;;;;6.40;3.00;;;;;;;17.19;61.39;101382.69;5075054;28;20084;-61
2022/06/06 06:43:17;;;;;;;18.63;3.90;;;;;;;17.21;61.51;101379.72;5069789;28;20083;-62
2022/06/06 06:45:51;;;;;;;26.67;5.72;;;;;;;17.22;61.46;101379.47;5075802;28;20100;-63
2022/06/06 06:48:24;;;;;;;16.13;4.35;;;;;;;17.23;61.44;101391.97;5075477;28;20084;-61
2022/06/06 06:51:01;;;;;;;22.30;5.05;;;;;;;17.26;61.43;101390.66;5085187;28;20052;-63
2022/06/06 06:53:59;;;;;;;15.00;4.88;;;;;;;17.34;61.40;101395.63;5079707;28;20102;-63
2022/06/06 06:56:37;;;;;;;;;;;;;;;17.37;60.80;101397.00;5062258;28;20083;-62
2022/06/06 06:59:13;;;;;;;16.13;3.55;;;;;;;17.37;60.64;101399.72;5073150;28;20024;-60
2022/06/06 07:08:32;;;;;;;;;;;;;;;17.31;60.65;101401.59;5074006;28;20091;-61
2022/06/06 07:10:43;;;;;;;9.27;3.28;;;;;;;17.23;60.35;101400.13;5069543;28;20080;-61
2022/06/06 07:13:31;;;;;;;4.93;2.78;;;;;;;17.24;60.29;101403.66;5072819;28;20048;-61
2022/06/06 07:16:09;;;;;;;6.38;2.60;;;;;;;17.27;60.05;101396.91;5069865;28;20063;-61
2022/06/06 07:18:39;;;;;;;6.57;3.13;;;;;;;17.24;60.04;101392.81;5071199;28;20052;-61
2022/06/06 07:21:12;;;;;;;9.65;3.65;;;;;;;17.29;60.01;101400.19;5072799;28;20059;-63
2022/06/06 07:23:43;;;;;;;6.57;2.40;;;;;;;17.29;59.60;101398.31;5077695;28;20056;-62
2022/06/06 07:26:12;;;;;;;4.85;2.45;;;;;;;17.29;59.69;101411.88;5075414;28;20063;-61
2022/06/06 07:28:40;;;;;;;4.82;2.35;;;;;;;17.30;59.75;101407.28;5076946;28;20045;-61
2022/06/06 07:31:17;;;;;;;4.78;2.55;;;;;;;17.29;59.55;101411.06;5075610;28;20048;-61
2022/06/06 07:34:00;;;;;;;3.92;2.25;;;;;;;17.28;59.29;101404.81;5072502;28;20390;-61
2022/06/06 07:36:44;;;;;;;5.10;2.03;;;;;;;17.28;59.51;101409.41;5079249;28;20063;-60
2022/06/06 07:39:25;;;;;;;5.15;1.90;;;;;;;17.28;59.33;101402.09;5080781;28;20091;-61
2022/06/06 07:42:06;;;;;;;3.58;1.90;;;;;;;17.28;59.58;101415.69;5080244;28;20055;-61
2022/06/06 07:44:44;;;;;;;4.82;2.00;;;;;;;17.27;59.56;101408.59;5077075;28;20063;-60
2022/06/06 07:47:23;;;;;;;3.80;1.85;;;;;;;17.27;59.50;101408.59;5079110;28;20084;-60
2022/06/06 07:49:55;;;;;;;4.13;2.08;;;;;;;17.26;59.36;101411.56;5077992;28;20106;-61
2022/06/06 07:52:34;;;;;;;4.13;2.03;;;;;;;17.26;59.42;101414.28;5080239;28;20048;-60
2022/06/06 07:55:12;;;;;;;3.55;2.05;;;;;;;17.26;59.30;101406.13;5079721;28;20151;-61
2022/06/06 07:57:49;;;;;;;3.42;2.10;;;;;;;17.26;59.45;101414.28;5086626;28;20070;-59
2022/06/06 08:00:20;;;;;;;5.00;2.17;;;;;;;17.27;59.80;101413.22;5089665;28;20075;-61
2022/06/06 08:03:14;;;;;;;3.85;1.85;;;;;;;17.32;60.51;101410.56;5081988;28;20116;-60
2022/06/06 08:06:04;;;;;;;3.13;2.00;;;;;;;17.33;59.69;101410.31;5079363;28;20124;-60
2022/06/06 08:08:55;;;;;;;5.05;2.05;;;;;;;17.34;59.15;101406.47;5081703;28;20048;-60
2022/06/06 08:11:35;;;;;;;4.85;1.90;;;;;;;17.36;59.08;101406.22;5083465;28;20056;-62
2022/06/06 08:14:15;;;;;;;2.08;1.40;;;;;;;17.43;59.24;101404.13;5085177;28;20705;-60
2022/06/06 08:16:48;;;;;;;2.17;1.33;;;;;;;17.43;59.08;101402.25;5081117;28;20072;-60
2022/06/06 08:19:35;;;;;;;2.65;1.25;;;;;;;17.44;58.72;101405.78;5068804;28;20053;-62
2022/06/06 08:22:03;;;;;;;6.35;1.58;;;;;;;17.41;58.52;101395.41;5073029;28;20078;-60
2022/06/06 08:24:34;;;;;;;3.55;1.30;;;;;;;17.43;58.31;101402.25;5078173;28;20067;-62
2022/06/06 08:27:20;;;;;;;3.13;1.48;;;;;;;17.44;58.65;101395.72;5077025;28;20082;-62
2022/06/06 08:29:49;;;;;;;5.85;1.88;;;;;;;17.47;58.58;101394.41;5078841;28;20111;-62
2022/06/06 08:32:17;;;;;;;4.13;1.45;;;;;;;17.50;58.38;101404.78;5075241;28;20084;-62
2022/06/06 08:34:47;;;;;;;3.00;1.30;;;;;;;17.52;58.49;101395.28;5072469;28;20055;-61
2022/06/06 08:37:47;;;;;;;2.92;1.48;;;;;;;17.56;57.96;101401.03;5079191;28;20048;-65
2022/06/06 08:40:47;;;;;;;3.50;1.40;;;;;;;17.57;58.24;101397.25;5071701;28;20114;-62
2022/06/06 08:43:28;;;;;;;2.03;0.93;;;;;;;17.62;57.90;101394.56;5075947;28;20056;-61
2022/06/06 08:46:14;;;;;;;2.10;1.60;;;;;;;17.78;59.83;101388.25;5064503;28;20071;-60
2022/06/06 08:49:10;;;;;;;3.47;1.38;;;;;;;17.82;58.32;101388.56;5069672;28;20098;-64
2022/06/06 08:51:49;;;;;;;3.35;1.70;;;;;;;17.76;58.79;101386.88;5071559;28;20076;-61
2022/06/06 08:54:55;;;;;;;6.55;1.52;;;;;;;17.70;58.28;101390.63;5073409;28;20067;-61
2022/06/06 08:57:39;;;;;;;2.30;1.35;;;;;;;17.66;58.48;101387.59;5065250;28;20064;-60
2022/06/06 09:00:18;;;;;;;6.07;1.52;;;;;;;17.64;58.26;101387.00;5069389;28;20044;-61
2022/06/06 09:03:28;;;;;;;1.98;1.25;;;;;;;17.62;58.35;101385.59;5062307;28;20278;-61
2022/06/06 09:06:22;;;;;;;2.95;1.10;;;;;;;17.64;59.36;101387.00;5073434;28;20044;-61
2022/06/06 09:09:32;;;;;;;3.92;1.42;;;;;;;17.73;58.62;101388.22;5079610;28;20086;-62
2022/06/06 09:12:47;;;;;;;2.42;1.20;;;;;;;17.64;58.60;101386.16;5074908;28;20059;-62
2022/06/06 09:15:46;;;;;;;3.22;1.33;;;;;;;17.69;59.17;101388.97;5078232;28;20048;-62
2022/06/06 09:19:01;;;;;;;1.77;0.95;;;;;;;17.83;60.06;101384.78;5072814;28;20067;-63
2022/06/06 09:22:09;;;;;;;1.80;0.90;;;;;;;17.84;59.28;101375.53;5082387;28;20083;-65
2022/06/06 09:25:12;;;;;;;3.08;1.20;;;;;;;17.84;59.54;101381.78;5081965;28;20068;-67
2022/06/06 09:28:02;;;;;;;5.10;1.20;;;;;;;17.99;59.23;101372.97;5075281;28;20132;-63
2022/06/06 09:31:03;;;;;;;2.55;1.30;;;;;;;17.93;59.47;101365.84;5077673;28;20048;-66
2022/06/06 09:34:04;;;;;;;2.78;1.10;;;;;;;17.87;59.39;101362.25;5073448;28;20044;-65
2022/06/06 09:36:51;;;;;;;3.60;1.00;;;;;;;17.79;59.16;101353.72;4738540;28;9999913;-64
2022/06/06 09:39:34;;;;;;;10.48;1.92;;;;;;;18.11;60.22;101360.00;5083067;28;20117;-66
2022/06/06 09:42:15;;;;;;;3.38;1.10;;;;;;;18.10;59.88;101360.28;5080565;28;20060;-64
2022/06/06 09:45:17;;;;;;;3.60;1.40;;;;;;;18.11;60.79;101364.63;5083102;28;20442;-64
2022/06/06 09:48:32;;;;;;;4.68;1.42;;;;;;;18.15;60.55;101357.59;5077474;28;20048;-63
2022/06/06 09:51:42;;;;;;;6.57;1.50;;;;;;;18.23;60.09;101356.28;5075084;28;20576;-63
2022/06/06 10:01:58;;;;;;;3.17;1.42;;;;;;;18.17;60.09;101350.81;4950015;29;20160;-63
2022/06/06 10:05:07;;;;;;;2.22;1.10;;;;;;;18.41;59.64;101345.81;4944773;29;20051;-66
2022/06/06 10:08:10;;;;;;;2.78;1.15;;;;;;;18.55;59.05;101346.19;4947645;29;20052;-62
2022/06/06 10:10:55;;;;;;;2.08;1.38;;;;;;;18.62;58.99;101340.53;4943315;29;20075;-63
2022/06/06 10:13:43;;;;;;;3.15;1.00;;;;;;;18.65;58.62;101348.19;4947614;29;20055;-63
2022/06/06 10:16:35;;;;;;;3.08;1.15;;;;;;;18.60;58.62;101337.22;4948701;29;20039;-63
2022/06/06 10:19:20;;;;;;;2.08;0.93;;;;;;;18.54;58.62;101331.75;4944006;29;20055;-62
2022/06/06 10:22:11;;;;;;;2.00;0.90;;;;;;;18.44;58.88;101326.25;4959613;28;20083;-62
2022/06/06 10:24:59;;;;;;;2.15;0.90;;;;;;;18.54;58.49;101336.38;4953552;29;20142;-63
2022/06/06 10:27:45;;;;;;;1.65;0.88;;;;;;;18.48;58.50;101326.53;4959445;28;20231;-60
2022/06/06 10:30:19;;;;;;;2.60;0.80;;;;;;;18.50;58.36;101332.53;5013215;28;20042;-62
2022/06/06 10:33:21;;;;;;;1.38;0.90;;;;;;;18.57;57.43;101330.41;4716571;28;9999998;-63
2022/06/06 10:35:58;;;;;;;3.45;1.40;;;;;;;18.48;58.12;101331.97;5073423;28;20088;-63
2022/06/06 10:38:46;;;;;;;1.77;1.30;;;;;;;18.51;57.27;101337.72;5074659;28;20103;-64
2022/06/06 10:41:31;;;;;;;4.38;1.60;;;;;;;18.53;57.41;101359.22;5071114;28;20076;-64
2022/06/06 10:44:27;;;;;;;4.03;1.15;;;;;;;18.47;57.62;101363.00;4722096;28;10000143;-64
2022/06/06 10:47:17;;;;;;;3.00;1.20;;;;;;;18.42;58.45;101360.25;5065098;28;20076;-64
2022/06/06 10:49:52;;;;;;;4.25;1.05;;;;;;;18.38;59.04;101359.94;5072449;28;20060;-64
2022/06/06 10:53:10;;;;;;;2.42;1.40;;;;;;;18.37;59.15;101350.16;5076671;28;20088;-63
2022/06/06 10:56:09;;;;;;;4.28;1.10;;;;;;;18.42;59.67;101343.91;4991966;28;20082;-62
2022/06/06 10:59:19;;;;;;;5.45;2.10;;;;;;;18.43;59.50;101342.84;4960174;28;20070;-63
2022/06/06 11:02:30;;;;;;;10.18;3.28;;;;;;;18.42;60.32;101330.31;4993327;28;20077;-63
2022/06/06 11:05:29;;;;;;;4.70;1.90;;;;;;;18.44;60.26;101347.19;4993743;28;20121;-62
2022/06/06 11:08:18;;;;;;;6.60;1.63;;;;;;;18.48;60.59;101340.16;4970264;28;20798;-62
2022/06/06 11:11:20;;;;;;;2.95;1.65;;;;;;;18.49;59.76;101339.06;4997878;28;20120;-62
2022/06/06 11:13:58;;;;;;;6.85;2.17;;;;;;;18.50;60.29;101329.81;4997204;28;20058;-61
2022/06/06 11:16:58;;;;;;;5.32;2.28;;;;;;;18.53;60.36;101326.56;5001324;28;20078;-62
2022/06/06 11:20:09;;;;;;;7.03;2.70;;;;;;;18.52;59.99;101330.38;4992698;28;20097;-62
2022/06/06 11:22:39;;;;;;;13.18;4.05;;;;;;;18.61;60.86;101323.38;4997873;28;20077;-62
2022/06/06 11:25:12;;;;;;;8.98;2.67;;;;;;;18.68;60.02;101317.69;5001077;28;20057;-62
2022/06/06 11:28:24;;;;;;;3.92;1.67;;;;;;;18.75;60.15;101324.56;4999910;28;20089;-62
2022/06/06 11:31:23;;;;;;;4.10;2.00;;;;;;;18.96;59.40;101316.47;5072811;28;20088;-63
2022/06/06 11:34:25;;;;;;;4.18;1.50;;;;;;;19.00;58.98;101317.59;5079936;28;20052;-63
2022/06/06 11:37:34;;;;;;;8.93;1.60;;;;;;;19.06;58.39;101297.44;5071713;28;20056;-62
2022/06/06 11:40:32;;;;;;;6.15;1.92;;;;;;;19.05;58.32;101312.97;5074211;28;20135;-62
2022/06/06 11:43:20;;;;;;;3.22;1.25;;;;;;;19.02;58.43;101307.22;5070796;28;20130;-62
2022/06/06 11:46:25;;;;;;;10.60;2.05;;;;;;;19.30;56.64;101301.31;5077602;28;20059;-62
2022/06/06 11:49:29;;;;;;;5.13;1.85;;;;;;;19.24;57.41;101296.91;4994644;28;20468;-62
2022/06/06 11:52:29;;;;;;;6.38;1.55;;;;;;;19.11;56.54;101308.31;4999376;28;20050;-62
2022/06/06 11:55:18;;;;;;;5.13;1.85;;;;;;;19.07;56.44;101296.31;4994304;28;20153;-62
2022/06/06 11:58:23;;;;;;;3.40;1.15;;;;;;;19.03;56.47;101296.06;4995044;28;20061;-60
2022/06/06 12:01:06;;;;;;;2.90;1.27;;;;;;;19.10;56.91;101290.34;4995768;28;20078;-61
2022/06/06 12:04:02;;;;;;;4.53;1.58;;;;;;;19.22;57.13;101299.09;4994308;28;20085;-62
2022/06/06 12:06:57;;;;;;;4.25;1.40;;;;;;;19.17;57.66;101289.00;5001638;28;20050;-62
2022/06/06 12:09:41;;;;;;;2.83;1.23;;;;;;;19.30;56.58;101290.41;4644211;28;10000421;-62
2022/06/06 12:12:42;;;;;;;4.93;1.50;;;;;;;19.35;56.33;101298.59;4996587;28;20054;-61
2022/06/06 12:15:38;;;;;;;3.75;1.17;;;;;;;19.46;55.82;101299.44;4980942;28;20046;-60
2022/06/06 12:18:26;;;;;;;2.80;1.00;;;;;;;19.42;55.71;101301.88;4992388;28;20065;-61
2022/06/06 12:21:25;;;;;;;3.90;1.25;;;;;;;19.47;55.72;101303.78;4995985;28;20559;-61
2022/06/06 12:24:12;;;;;;;2.33;1.10;;;;;;;19.42;55.90;101303.78;4644751;28;10000599;-62
2022/06/06 12:27:01;;;;;;;3.40;1.45;;;;;;;19.46;55.53;101291.25;5077082;28;20103;-63
2022/06/06 12:30:14;;;;;;;2.67;1.73;;;;;;;19.35;55.48;101284.13;5079242;28;20072;-60
2022/06/06 12:33:02;;;;;;;5.05;1.90;;;;;;;19.35;55.43;101290.41;5078368;28;20045;-61
2022/06/06 12:35:42;;;;;;;3.03;2.00;;;;;;;19.30;55.85;101295.84;5075443;28;20040;-61
2022/06/06 12:38:27;;;;;;;3.55;1.90;;;;;;;19.31;55.57;101300.22;5073598;28;20076;-61
2022/06/06 12:41:07;;;;;;;3.13;2.00;;;;;;;19.32;55.57;101301.84;5083722;28;20056;-61
2022/06/06 12:43:50;;;;;;;2.30;1.65;;;;;;;19.40;55.19;101297.78;5080809;28;20041;-62
2022/06/06 12:46:42;;;;;;;5.78;1.67;;;;;;;19.43;55.13;101292.59;5074439;28;20040;-61